createdAt,value
2022-07-29T00:00:03.274Z,96141.71
2022-07-29T00:02:56.085Z,96139.41
2022-07-29T00:05:45.560Z,96140.75
2022-07-29T00:08:46.464Z,96137.41
2022-07-29T00:11:36.201Z,96140.66
2022-07-29T00:14:31.263Z,96138.30
2022-07-29T00:17:55.481Z,96134.11
2022-07-29T00:21:24.580Z,96133.50
2022-07-29T00:25:13.513Z,96138.98
2022-07-29T00:29:32.453Z,96131.02
2022-07-29T00:33:10.326Z,96126.31
2022-07-29T00:36:19.254Z,96120.88
2022-07-29T00:39:46.939Z,96116.68
2022-07-29T00:42:48.780Z,96115.69
2022-07-29T00:46:32.082Z,96118.44
2022-07-29T00:49:30.973Z,96122.85
2022-07-29T00:52:21.827Z,96120.67
2022-07-29T00:55:13.188Z,96121.11
2022-07-29T00:58:07.315Z,96120.52
2022-07-29T01:01:32.735Z,96114.04
2022-07-29T01:04:30.831Z,96111.29
2022-07-29T01:07:02.485Z,96105.49
2022-07-29T01:09:58.346Z,96106.73
2022-07-29T01:13:28.182Z,96103.11
2022-07-29T01:16:34.304Z,96103.02
2022-07-29T01:19:29.599Z,96106.41
2022-07-29T01:23:05.129Z,96105.17
2022-07-29T01:26:11.557Z,96107.08
2022-07-29T01:29:08.608Z,96107.59
2022-07-29T01:32:47.193Z,96104.19
2022-07-29T01:36:35.507Z,96107.09
2022-07-29T01:40:27.128Z,96110.60
2022-07-29T01:44:22.299Z,96107.88
2022-07-29T01:47:22.145Z,96105.21
2022-07-29T01:50:28.747Z,96103.89
2022-07-29T01:53:05.708Z,96100.52
2022-07-29T01:55:59.022Z,96098.55
2022-07-29T01:58:33.725Z,96097.98
2022-07-29T02:02:13.366Z,96097.81
2022-07-29T02:05:32.298Z,96095.50
2022-07-29T02:08:49.213Z,96092.92
2022-07-29T02:12:37.174Z,96084.19
2022-07-29T02:16:28.035Z,96083.80
2022-07-29T02:19:56.262Z,96081.88
2022-07-29T02:23:50.030Z,96080.94
2022-07-29T02:27:40.058Z,96083.56
2022-07-29T02:31:28.371Z,96083.55
2022-07-29T02:35:16.358Z,96086.19
2022-07-29T02:38:43.131Z,96083.56
2022-07-29T02:42:34.085Z,96080.61
2022-07-29T02:45:31.141Z,96079.36
2022-07-29T02:48:59.963Z,96082.88
2022-07-29T02:52:53.034Z,96080.95
2022-07-29T02:56:47.233Z,96082.02
2022-07-29T03:00:35.571Z,96077.02
2022-07-29T03:04:23.566Z,96075.19
2022-07-29T03:07:51.802Z,96078.20
2022-07-29T03:11:40.108Z,96077.75
2022-07-29T03:15:33.050Z,96081.82
2022-07-29T03:19:21.908Z,96083.21
2022-07-29T03:23:10.720Z,96080.06
2022-07-29T03:26:39.470Z,96076.96
2022-07-29T03:30:08.962Z,96075.72
2022-07-29T03:33:56.924Z,96080.63
2022-07-29T03:37:45.183Z,96079.81
2022-07-29T03:41:33.436Z,96081.04
2022-07-29T03:45:18.517Z,96088.48
2022-07-29T03:48:50.781Z,96095.91
2022-07-29T03:52:38.769Z,96096.45
2022-07-29T03:56:26.712Z,96096.52
2022-07-29T04:00:15.598Z,96101.20
2022-07-29T04:04:04.212Z,96104.94
2022-07-29T04:07:53.090Z,96104.65
2022-07-29T04:11:21.098Z,96103.66
2022-07-29T04:15:06.356Z,96106.67
2022-07-29T04:18:50.295Z,96103.04
2022-07-29T04:21:26.382Z,96101.64
2022-07-29T04:24:22.720Z,96099.61
2022-07-29T04:27:48.112Z,96093.99
2022-07-29T04:31:36.758Z,96099.06
2022-07-29T04:35:25.115Z,96101.71
2022-07-29T04:38:46.940Z,96102.16
2022-07-29T04:42:35.566Z,96095.49
2022-07-29T04:46:35.081Z,96092.21
2022-07-29T04:50:23.720Z,96093.17
2022-07-29T04:54:12.802Z,96097.77
2022-07-29T04:58:01.878Z,96097.10
2022-07-29T05:01:51.537Z,96095.52
2022-07-29T05:05:40.198Z,96098.35
2022-07-29T05:09:25.007Z,96102.41
2022-07-29T05:13:13.970Z,96104.55
2022-07-29T05:17:02.579Z,96106.96
2022-07-29T05:20:34.230Z,96108.30
2022-07-29T05:24:03.254Z,96110.67
2022-07-29T05:27:51.163Z,96116.08
2022-07-29T05:31:39.729Z,96121.86
2022-07-29T05:35:28.720Z,96124.50
2022-07-29T05:39:17.531Z,96123.02
2022-07-29T05:43:09.775Z,96126.08
2022-07-29T05:46:21.330Z,96125.19
2022-07-29T05:50:10.018Z,96125.29
2022-07-29T05:53:58.578Z,96121.89
2022-07-29T05:57:47.122Z,96122.75
2022-07-29T06:01:36.020Z,96126.48
2022-07-29T06:05:24.725Z,96126.38
2022-07-29T06:08:53.486Z,96121.02
2022-07-29T06:11:34.570Z,96125.94
2022-07-29T06:14:37.452Z,96127.87
2022-07-29T06:17:25.024Z,96128.63
2022-07-29T06:20:26.961Z,96131.16
2022-07-29T06:23:19.687Z,96126.79
2022-07-29T06:26:48.084Z,96128.16
2022-07-29T06:30:20.252Z,96121.82
2022-07-29T06:34:08.775Z,96122.95
2022-07-29T06:37:56.737Z,96118.63
2022-07-29T06:41:48.000Z,96116.46
2022-07-29T06:45:36.238Z,96110.32
2022-07-29T06:49:05.135Z,96112.39
2022-07-29T06:52:54.797Z,96110.43
2022-07-29T06:56:43.402Z,96113.79
2022-07-29T07:00:31.697Z,96111.59
2022-07-29T07:03:40.085Z,96110.10
2022-07-29T07:07:09.102Z,96110.27
2022-07-29T07:10:02.647Z,96107.42
2022-07-29T07:13:15.723Z,96107.45
2022-07-29T07:16:41.005Z,96104.96
2022-07-29T07:20:09.151Z,96103.77
2022-07-29T07:22:40.130Z,96100.52
2022-07-29T07:25:10.426Z,96095.65
2022-07-29T07:28:38.842Z,96093.73
2022-07-29T07:31:45.521Z,96093.83
2022-07-29T07:35:06.154Z,96092.40
2022-07-29T07:37:35.745Z,96089.18
2022-07-29T07:40:05.589Z,96092.61
2022-07-29T07:42:43.479Z,96093.27
2022-07-29T07:45:16.518Z,96098.61
2022-07-29T07:47:45.321Z,96094.20
2022-07-29T07:50:18.722Z,96093.73
2022-07-29T07:53:09.401Z,96093.81
2022-07-29T07:58:31.104Z,96093.30
2022-07-29T08:01:00.218Z,96093.80
2022-07-29T08:03:29.485Z,96096.39
2022-07-29T08:05:59.553Z,96091.91
2022-07-29T08:08:32.744Z,96093.17
2022-07-29T08:11:37.872Z,96091.19
2022-07-29T08:14:29.924Z,96089.01
2022-07-29T08:17:01.066Z,96092.40
2022-07-29T08:19:29.871Z,96093.50
2022-07-29T08:22:38.469Z,96096.73
2022-07-29T08:26:27.204Z,96096.68
2022-07-29T08:30:15.633Z,96095.92
2022-07-29T08:34:04.024Z,96094.65
2022-07-29T08:37:33.917Z,96087.80
2022-07-29T08:41:06.458Z,96090.33
2022-07-29T08:44:31.845Z,96093.55
2022-07-29T08:47:46.681Z,96093.66
2022-07-29T08:51:10.436Z,96089.34
2022-07-29T08:54:47.344Z,96091.09
2022-07-29T08:58:05.437Z,96085.60
2022-07-29T09:00:56.948Z,96081.62
2022-07-29T09:03:35.790Z,96082.52
2022-07-29T09:06:07.476Z,96086.41
2022-07-29T09:08:36.744Z,96083.73
2022-07-29T09:11:05.318Z,96086.11
2022-07-29T09:13:36.172Z,96085.16
2022-07-29T09:16:09.562Z,96085.79
2022-07-29T09:18:42.959Z,96079.55
2022-07-29T09:21:31.722Z,96075.56
2022-07-29T09:24:08.001Z,96076.75
2022-07-29T09:26:38.676Z,96073.91
2022-07-29T09:29:22.330Z,96071.27
2022-07-29T09:31:54.384Z,96069.46
2022-07-29T09:34:25.731Z,96067.14
2022-07-29T09:36:56.356Z,96067.77
2022-07-29T09:39:58.298Z,96062.04
2022-07-29T09:42:33.980Z,96064.19
2022-07-29T09:45:03.714Z,96060.58
2022-07-29T09:47:48.029Z,96063.79
2022-07-29T09:50:43.356Z,96058.59
2022-07-29T09:53:41.240Z,96060.75
2022-07-29T09:57:26.162Z,96052.36
2022-07-29T10:00:20.897Z,96046.81
2022-07-29T10:02:50.488Z,96046.21
2022-07-29T10:05:41.379Z,96039.53
2022-07-29T10:08:11.544Z,96034.19
2022-07-29T10:11:51.718Z,96036.01
2022-07-29T10:14:20.427Z,96036.71
2022-07-29T10:16:49.862Z,96030.92
2022-07-29T10:19:43.355Z,96029.70
2022-07-29T10:22:51.866Z,96020.98
2022-07-29T10:25:51.259Z,96025.14
2022-07-29T10:29:38.938Z,96027.11
2022-07-29T10:32:38.201Z,96025.70
2022-07-29T10:36:26.712Z,96024.88
2022-07-29T10:40:07.712Z,96017.28
2022-07-29T10:43:37.822Z,96008.34
2022-07-29T10:46:28.594Z,96002.14
2022-07-29T10:49:34.221Z,96000.02
2022-07-29T10:52:30.421Z,95994.38
2022-07-29T10:55:05.902Z,95992.25
2022-07-29T10:58:52.924Z,95999.58
2022-07-29T11:01:37.126Z,96012.23
2022-07-29T11:04:10.389Z,96024.24
2022-07-29T11:07:04.189Z,96032.55
2022-07-29T11:09:38.370Z,96032.02
2022-07-29T11:12:39.729Z,96026.24
2022-07-29T11:15:13.584Z,96017.62
2022-07-29T11:17:59.663Z,96011.70
2022-07-29T11:20:47.826Z,96009.52
2022-07-29T11:23:42.697Z,96014.97
2022-07-29T11:26:35.421Z,96020.90
2022-07-29T11:30:04.796Z,96025.68
2022-07-29T11:37:28.969Z,96025.95
2022-07-29T11:40:37.623Z,96024.30
2022-07-29T11:44:04.989Z,96022.11
2022-07-29T11:47:14.984Z,96023.75
2022-07-29T11:50:19.279Z,96019.90
2022-07-29T11:53:00.381Z,96014.16
2022-07-29T11:55:53.838Z,96009.56
2022-07-29T11:59:00.535Z,96004.40
2022-07-29T12:02:12.151Z,96000.42
2022-07-29T12:06:03.541Z,95998.52
2022-07-29T12:07:03.724Z,96029.73
2022-07-29T12:09:52.493Z,96004.85
2022-07-29T12:13:45.803Z,96012.13
2022-07-29T12:17:38.318Z,96015.66
2022-07-29T12:21:27.132Z,96019.50
2022-07-29T12:25:32.819Z,96019.02
2022-07-29T12:29:34.728Z,96022.00
2022-07-29T12:33:24.798Z,96018.77
2022-07-29T12:37:13.697Z,96005.22
2022-07-29T12:41:02.791Z,95999.42
2022-07-29T12:44:53.534Z,95995.98
2022-07-29T12:48:54.637Z,95989.20
2022-07-29T12:52:43.596Z,95978.36
2022-07-29T12:56:45.266Z,95967.41
2022-07-29T13:00:46.979Z,95965.80
2022-07-29T13:04:34.540Z,95970.74
2022-07-29T13:08:05.144Z,95973.86
2022-07-29T13:12:10.355Z,95974.83
2022-07-29T13:15:42.773Z,95970.71
2022-07-29T13:18:51.866Z,95970.25
2022-07-29T13:21:48.162Z,95968.27
2022-07-29T13:25:10.121Z,95962.73
2022-07-29T13:28:46.144Z,95962.02
2022-07-29T13:32:34.037Z,95961.58
2022-07-29T13:35:39.977Z,95964.42
2022-07-29T13:39:28.823Z,95971.97
2022-07-29T13:43:17.561Z,95977.72
2022-07-29T13:47:06.398Z,95985.13
2022-07-29T13:50:55.269Z,95988.10
2022-07-29T13:54:44.227Z,95991.39
2022-07-29T13:58:33.111Z,95993.03
2022-07-29T14:02:25.730Z,95995.63
2022-07-29T14:06:15.102Z,96007.48
2022-07-29T14:10:04.195Z,96015.85
2022-07-29T14:13:53.127Z,96017.13
2022-07-29T14:17:42.014Z,96021.67
2022-07-29T14:21:31.005Z,96016.19
2022-07-29T14:25:22.573Z,96007.19
2022-07-29T14:29:12.038Z,96003.76
2022-07-29T14:31:57.417Z,96002.44
2022-07-29T14:34:50.140Z,96001.89
2022-07-29T14:38:18.292Z,95999.06
2022-07-29T14:41:08.041Z,95994.92
2022-07-29T14:44:55.827Z,95989.06
2022-07-29T14:48:24.677Z,95982.22
2022-07-29T14:52:12.709Z,95982.79
2022-07-29T14:56:06.044Z,95985.05
2022-07-29T14:59:44.231Z,95983.30
2022-07-29T15:03:33.821Z,95979.29
2022-07-29T15:06:42.871Z,95976.52
2022-07-29T15:09:31.682Z,95975.91
2022-07-29T15:12:00.139Z,95978.61
2022-07-29T15:14:28.464Z,95990.67
2022-07-29T15:16:56.606Z,95992.28
2022-07-29T15:19:25.668Z,95991.77
2022-07-29T15:21:59.737Z,95977.60
2022-07-29T15:24:28.309Z,95966.23
2022-07-29T15:26:57.131Z,95952.89
2022-07-29T15:29:25.402Z,95947.45
2022-07-29T15:31:54.404Z,95940.08
2022-07-29T15:34:24.292Z,95938.63
2022-07-29T15:36:53.528Z,95942.66
2022-07-29T15:39:23.414Z,95943.48
2022-07-29T15:41:53.625Z,95940.65
2022-07-29T15:44:25.228Z,95933.70
2022-07-29T15:47:09.081Z,95932.48
2022-07-29T15:50:05.627Z,95932.33
2022-07-29T15:52:37.810Z,95926.10
2022-07-29T15:55:12.821Z,95922.40
2022-07-29T15:57:41.919Z,95919.38
2022-07-29T16:00:12.140Z,95917.38
2022-07-29T16:02:40.253Z,95917.76
2022-07-29T16:05:09.729Z,95924.88
2022-07-29T16:07:38.056Z,95921.70
2022-07-29T16:10:07.974Z,95915.34
2022-07-29T16:12:36.025Z,95918.31
2022-07-29T16:15:09.458Z,95921.93
2022-07-29T16:17:39.230Z,95922.98
2022-07-29T16:20:08.740Z,95921.58
2022-07-29T16:22:38.655Z,95920.33
2022-07-29T16:25:07.374Z,95919.95
2022-07-29T16:27:37.820Z,95923.95
2022-07-29T16:30:10.845Z,95935.33
2022-07-29T16:32:39.924Z,95938.95
2022-07-29T16:35:10.474Z,95942.40
2022-07-29T16:38:04.047Z,95946.98
2022-07-29T16:40:56.743Z,95952.39
2022-07-29T16:43:45.923Z,95960.89
2022-07-29T16:46:39.096Z,95965.42
2022-07-29T16:49:39.721Z,95973.41
2022-07-29T16:52:52.873Z,95985.08
2022-07-29T16:55:42.474Z,95995.77
2022-07-29T16:58:59.611Z,96005.51
2022-07-29T17:01:48.362Z,96013.80
2022-07-29T17:05:04.534Z,96016.05
2022-07-29T17:07:38.622Z,96015.04
2022-07-29T17:11:06.677Z,96014.94
2022-07-29T17:14:24.020Z,96019.49
2022-07-29T17:17:56.510Z,96027.58
2022-07-29T17:21:26.010Z,96048.63
2022-07-29T17:24:23.735Z,96041.11
2022-07-29T17:27:20.301Z,96033.79
2022-07-29T17:30:59.872Z,96028.29
2022-07-29T17:34:47.956Z,96020.76
2022-07-29T17:38:32.701Z,96018.92
2022-07-29T17:42:03.628Z,96022.19
2022-07-29T17:45:51.945Z,96021.92
2022-07-29T17:49:20.528Z,96019.73
2022-07-29T17:53:05.183Z,96021.25
2022-07-29T17:56:39.745Z,96021.91
2022-07-29T18:00:09.017Z,96021.39
2022-07-29T18:03:38.343Z,96024.55
2022-07-29T18:06:48.878Z,96027.77
2022-07-29T18:10:17.832Z,96028.60
2022-07-29T18:13:50.634Z,96028.74
2022-07-29T18:17:52.992Z,96026.79
2022-07-29T18:20:48.160Z,96024.58
2022-07-29T18:23:17.309Z,96021.83
2022-07-29T18:25:45.846Z,96016.63
2022-07-29T18:28:18.709Z,96014.31
2022-07-29T18:30:55.056Z,96019.13
2022-07-29T18:33:23.585Z,96027.05
2022-07-29T18:36:10.002Z,96025.93
2022-07-29T18:39:39.637Z,96026.80
2022-07-29T18:42:38.322Z,96023.14
2022-07-29T18:45:31.613Z,96024.98
2022-07-29T18:48:28.940Z,96028.42
2022-07-29T18:50:59.665Z,96032.86
2022-07-29T18:53:29.520Z,96031.79
2022-07-29T18:56:42.881Z,96040.36
2022-07-29T18:59:48.021Z,96037.20
2022-07-29T19:02:17.299Z,96035.91
2022-07-29T19:05:13.486Z,96026.09
2022-07-29T19:07:45.952Z,96023.27
2022-07-29T19:10:33.953Z,96023.26
2022-07-29T19:13:03.178Z,96026.89
2022-07-29T19:16:01.112Z,96032.26
2022-07-29T19:19:49.659Z,96033.19
2022-07-29T19:24:01.845Z,96036.58
2022-07-29T19:27:30.604Z,96036.57
2022-07-29T19:31:04.690Z,96037.02
2022-07-29T19:34:35.978Z,96044.00
2022-07-29T19:38:00.130Z,96048.58
2022-07-29T19:41:29.037Z,96047.83
2022-07-29T19:44:16.026Z,96049.77
2022-07-29T19:47:25.246Z,96053.02
2022-07-29T19:50:35.498Z,96050.92
2022-07-29T19:53:36.046Z,96047.79
2022-07-29T19:57:07.617Z,96043.78
2022-07-29T20:00:00.478Z,96042.83
2022-07-29T20:03:37.169Z,96037.30
2022-07-29T20:06:26.351Z,96035.85
2022-07-29T20:09:17.729Z,96030.28
2022-07-29T20:12:49.154Z,96026.22
2022-07-29T20:16:41.293Z,96025.53
2022-07-29T20:19:31.530Z,96031.78
2022-07-29T20:22:21.154Z,96037.77
2022-07-29T20:25:14.209Z,96034.50
2022-07-29T20:28:45.258Z,96036.17
2022-07-29T20:32:03.353Z,96034.42
2022-07-29T20:34:36.634Z,96027.86
2022-07-29T20:37:52.319Z,96021.54
2022-07-29T20:40:46.376Z,96022.62
2022-07-29T20:44:14.618Z,96024.79
2022-07-29T20:47:23.880Z,96023.72
2022-07-29T20:50:32.273Z,96019.80
2022-07-29T20:53:28.854Z,96023.55
2022-07-29T20:56:41.683Z,96021.80
2022-07-29T20:59:36.310Z,96022.20
2022-07-29T21:02:53.219Z,96017.08
2022-07-29T21:05:53.060Z,96013.33
2022-07-29T21:08:45.552Z,96012.30
2022-07-29T21:11:44.172Z,96000.65
2022-07-29T21:14:29.857Z,95989.20
2022-07-29T21:17:48.828Z,95993.52
2022-07-29T21:21:24.537Z,96004.23
2022-07-29T21:25:12.184Z,96001.81
2022-07-29T21:28:07.834Z,96003.79
2022-07-29T21:30:36.502Z,96005.58
2022-07-29T21:33:04.899Z,96006.67
2022-07-29T21:36:10.289Z,96008.80
2022-07-29T21:38:21.395Z,96012.86
2022-07-29T21:40:51.626Z,96014.88
2022-07-29T21:43:20.465Z,96014.63
2022-07-29T21:46:44.837Z,96015.46
2022-07-29T21:49:37.205Z,96015.00
2022-07-29T21:52:57.205Z,96015.79
2022-07-29T21:55:47.744Z,96012.37
2022-07-29T21:59:09.879Z,96012.40
2022-07-29T22:01:45.147Z,96007.56
2022-07-29T22:05:17.713Z,96007.13
2022-07-29T22:09:06.589Z,96004.48
2022-07-29T22:11:56.462Z,95997.66
2022-07-29T22:15:24.486Z,95996.10
2022-07-29T22:18:53.095Z,95991.41
2022-07-29T22:21:49.651Z,95985.91
2022-07-29T22:25:38.738Z,95981.23
2022-07-29T22:29:10.492Z,95979.34
2022-07-29T22:32:38.336Z,95976.70
2022-07-29T22:36:26.282Z,95977.68
2022-07-29T22:40:14.526Z,95972.95
2022-07-29T22:44:02.219Z,95974.32
2022-07-29T22:47:46.720Z,95978.74
2022-07-29T22:51:36.219Z,95971.81
2022-07-29T22:54:48.626Z,95968.58
2022-07-29T22:58:32.307Z,95968.87
2022-07-29T23:02:20.556Z,95964.96
2022-07-29T23:05:51.170Z,95963.80
2022-07-29T23:09:39.146Z,95960.30
2022-07-29T23:13:07.559Z,95955.38
2022-07-29T23:16:43.244Z,95949.90
2022-07-29T23:19:56.103Z,95944.48
2022-07-29T23:22:45.337Z,95942.88
2022-07-29T23:25:13.522Z,95942.20
2022-07-29T23:27:43.416Z,95940.58
2022-07-29T23:30:13.041Z,95941.71
2022-07-29T23:32:41.352Z,95934.02
2022-07-29T23:35:12.123Z,95931.81
2022-07-29T23:37:43.217Z,95930.82
2022-07-29T23:40:14.731Z,95929.40
2022-07-29T23:42:43.646Z,95928.21
2022-07-29T23:45:14.314Z,95926.77
2022-07-29T23:47:42.541Z,95932.27
2022-07-29T23:50:12.905Z,95929.17
2022-07-29T23:52:43.405Z,95925.88
2022-07-29T23:55:36.908Z,95923.10
2022-07-29T23:58:03.601Z,95920.18
